Time;durP1;ratioP1;P1;durP2;ratioP2;P2;SDS_P1;SDS_P2;PMS_P1;PMS_P2;Temp;Humidity;BMP_temperature;BMP_pressure;BME280_temperature;BME280_humidity;BME280_pressure;Samples;Min_cycle;Max_cycle;Signal;HPM_P1;HPM_P2
2020/12/28 00:01:03;;;;;;;53.85;36.85;;;2.20;98.70;;;;;;5108304;28;20663;-79
2020/12/28 00:03:28;;;;;;;49.77;35.23;;;2.20;98.50;;;;;;5109944;28;20197;-79
2020/12/28 00:05:59;;;;;;;58.23;36.50;;;2.30;98.60;;;;;;5109256;28;20435;-79
2020/12/28 00:08:28;;;;;;;56.15;36.60;;;2.30;98.50;;;;;;5108301;28;20516;-79
2020/12/28 00:10:59;;;;;;;54.75;36.78;;;2.30;98.50;;;;;;5109153;28;20254;-79
2020/12/28 00:13:28;;;;;;;51.03;36.22;;;2.20;98.50;;;;;;5109611;28;20168;-79
2020/12/28 00:15:53;;;;;;;50.88;35.45;;;2.30;98.40;;;;;;5108232;28;20184;-79
2020/12/28 00:18:19;;;;;;;55.37;35.53;;;2.30;98.30;;;;;;5107675;28;20265;-79
2020/12/28 00:20:44;;;;;;;51.20;35.33;;;2.30;98.40;;;;;;5109205;28;20268;-79
2020/12/28 00:23:13;;;;;;;47.03;33.17;;;2.20;98.60;;;;;;5108497;28;20567;-79
2020/12/28 00:25:38;;;;;;;49.63;32.80;;;2.10;98.60;;;;;;5106946;28;21028;-79
2020/12/28 00:28:06;;;;;;;48.20;33.10;;;2.20;98.80;;;;;;5107782;28;20168;-79
2020/12/28 00:30:35;;;;;;;47.75;33.88;;;2.20;98.70;;;;;;5109112;28;20215;-79
2020/12/28 00:33:00;;;;;;;46.30;33.00;;;2.10;98.80;;;;;;5108104;28;20270;-79
2020/12/28 00:35:26;;;;;;;48.47;32.70;;;2.10;98.80;;;;;;5109623;28;20626;-78
2020/12/28 00:37:57;;;;;;;48.13;32.00;;;2.10;98.60;;;;;;5110111;28;20183;-78
2020/12/28 00:40:23;;;;;;;57.40;37.60;;;2.00;98.60;;;;;;5107467;28;20204;-78
2020/12/28 00:42:54;;;;;;;56.00;37.30;;;2.00;98.70;;;;;;5106215;28;20190;-79
2020/12/28 00:45:20;;;;;;;55.55;36.45;;;2.00;98.60;;;;;;5109377;28;20609;-79
2020/12/28 00:47:45;;;;;;;54.00;37.80;;;2.00;98.60;;;;;;5107875;28;20535;-79
2020/12/28 00:50:11;;;;;;;54.50;39.47;;;2.00;98.60;;;;;;5108938;28;20692;-79
2020/12/28 00:52:40;;;;;;;54.43;37.43;;;2.00;98.60;;;;;;5085220;28;626592;-79
2020/12/28 00:55:08;;;;;;;50.05;33.50;;;1.90;98.50;;;;;;5109829;28;20187;-78
2020/12/28 00:57:37;;;;;;;54.42;33.90;;;2.00;98.80;;;;;;5109084;28;20232;-79
2020/12/28 01:00:06;;;;;;;45.42;32.20;;;2.00;98.70;;;;;;5109815;28;20223;-78
2020/12/28 01:02:41;;;;;;;50.63;33.60;;;2.00;98.70;;;;;;5108268;28;20679;-78
2020/12/28 01:05:09;;;;;;;49.30;34.55;;;2.00;98.90;;;;;;5110129;28;20175;-78
2020/12/28 01:07:35;;;;;;;51.60;35.08;;;2.00;98.70;;;;;;5109482;28;20176;-78
2020/12/28 01:10:04;;;;;;;49.37;34.10;;;2.00;98.70;;;;;;5109336;28;20199;-79
2020/12/28 01:12:35;;;;;;;48.83;35.60;;;2.00;98.70;;;;;;5109539;28;20184;-79
2020/12/28 01:15:04;;;;;;;53.40;34.78;;;2.00;98.40;;;;;;5108403;28;20184;-79
2020/12/28 01:17:29;;;;;;;45.47;32.10;;;2.10;98.40;;;;;;5109451;28;20303;-79
2020/12/28 01:19:58;;;;;;;46.83;32.40;;;2.10;98.50;;;;;;5108746;28;20282;-79
2020/12/28 01:22:23;;;;;;;45.40;30.73;;;2.10;98.30;;;;;;5108984;28;20180;-79
2020/12/28 01:24:49;;;;;;;45.63;31.40;;;2.10;98.40;;;;;;5109455;28;20629;-79
2020/12/28 01:27:23;;;;;;;44.57;31.90;;;2.00;98.50;;;;;;5108491;28;20278;-79
2020/12/28 01:29:49;;;;;;;44.33;31.30;;;2.10;98.40;;;;;;5109058;28;20224;-79
2020/12/28 01:32:24;;;;;;;50.37;34.30;;;2.10;98.30;;;;;;5108000;28;20184;-79
2020/12/28 01:34:58;;;;;;;48.65;34.97;;;2.10;98.70;;;;;;5107735;28;20175;-79
2020/12/28 01:37:29;;;;;;;56.17;37.72;;;2.10;98.20;;;;;;5108766;28;20175;-79
2020/12/28 01:39:55;;;;;;;55.35;37.05;;;2.20;98.20;;;;;;5109217;28;20288;-79
2020/12/28 01:42:20;;;;;;;48.47;34.47;;;2.10;98.40;;;;;;5108503;28;20260;-79
2020/12/28 01:44:49;;;;;;;42.43;30.70;;;2.20;98.50;;;;;;5107330;28;20179;-78
2020/12/28 01:47:26;;;;;;;37.33;27.73;;;2.30;98.60;;;;;;5107571;28;20194;-78
2020/12/28 01:49:55;;;;;;;33.25;22.95;;;2.30;98.70;;;;;;5107726;28;20184;-78
2020/12/28 01:52:28;;;;;;;31.73;23.55;;;2.30;98.80;;;;;;5107805;28;20721;-79
2020/12/28 01:54:54;;;;;;;29.77;20.65;;;2.30;98.80;;;;;;5107204;28;20267;-79
2020/12/28 01:57:19;;;;;;;27.15;17.42;;;2.40;98.70;;;;;;5106191;28;20453;-78
2020/12/28 01:59:45;;;;;;;21.27;16.13;;;2.50;98.80;;;;;;5103864;28;20223;-79
2020/12/28 02:02:20;;;;;;;27.80;18.77;;;2.60;98.60;;;;;;5107240;28;20175;-79
2020/12/28 02:04:48;;;;;;;18.38;12.30;;;2.60;98.90;;;;;;5106943;28;20191;-78
2020/12/28 02:07:22;;;;;;;19.15;13.27;;;2.70;98.80;;;;;;5108493;28;20199;-79
2020/12/28 02:09:48;;;;;;;15.30;12.27;;;2.80;98.70;;;;;;5108436;28;20187;-79
2020/12/28 02:12:13;;;;;;;16.70;12.70;;;2.80;98.80;;;;;;5108372;28;20175;-79
2020/12/28 02:14:39;;;;;;;14.93;11.87;;;2.80;98.80;;;;;;5107390;28;20423;-78
2020/12/28 02:17:05;;;;;;;20.83;13.70;;;2.90;98.70;;;;;;5106299;28;20188;-79
2020/12/28 02:19:52;;;;;;;16.27;11.27;;;2.80;98.50;;;;;;5107309;28;20234;-79
2020/12/28 02:22:18;;;;;;;18.23;12.98;;;2.90;98.50;;;;;;5106384;28;20171;-79
2020/12/28 02:24:43;;;;;;;25.73;14.77;;;2.80;98.50;;;;;;5107478;28;20202;-79
2020/12/28 02:27:09;;;;;;;22.60;16.13;;;2.80;98.60;;;;;;5106590;28;20640;-78
2020/12/28 02:29:38;;;;;;;18.17;13.20;;;2.90;98.60;;;;;;5108174;28;20219;-79
2020/12/28 02:32:12;;;;;;;19.10;13.82;;;2.90;98.50;;;;;;5107759;28;20444;-79
2020/12/28 02:34:40;;;;;;;16.05;11.20;;;2.90;98.60;;;;;;5108202;28;20236;-79
2020/12/28 02:37:09;;;;;;;15.57;12.00;;;2.90;98.50;;;;;;5105170;28;20695;-78
2020/12/28 02:39:37;;;;;;;12.75;10.85;;;2.90;98.50;;;;;;5106368;28;20671;-78
2020/12/28 02:42:24;;;;;;;12.50;10.05;;;3.00;98.50;;;;;;5107345;28;20194;-78
2020/12/28 02:44:49;;;;;;;14.13;11.52;;;3.00;98.60;;;;;;5107526;28;20175;-78
2020/12/28 02:47:23;;;;;;;14.17;12.40;;;3.00;98.60;;;;;;5107773;28;20190;-78
2020/12/28 02:49:52;;;;;;;13.75;10.60;;;3.00;98.60;;;;;;5107317;28;20538;-78
2020/12/28 02:52:20;;;;;;;14.73;12.35;;;2.90;98.80;;;;;;5106991;28;20620;-77
2020/12/28 02:54:52;;;;;;;17.05;11.27;;;3.00;98.60;;;;;;5106633;28;20187;-78
2020/12/28 02:57:17;;;;;;;12.38;9.35;;;3.00;98.60;;;;;;5106898;28;20191;-79
2020/12/28 02:59:45;;;;;;;10.20;8.20;;;2.90;98.90;;;;;;5107419;28;20249;-78
2020/12/28 03:02:11;;;;;;;11.40;9.18;;;2.90;99.10;;;;;;5105882;28;20183;-78
2020/12/28 03:04:48;;;;;;;10.03;7.93;;;2.80;99.30;;;;;;5105801;28;20195;-78
2020/12/28 03:07:17;;;;;;;12.60;8.75;;;2.90;99.50;;;;;;5106389;28;20549;-79
2020/12/28 03:09:43;;;;;;;9.85;7.72;;;2.80;99.60;;;;;;5106266;28;20645;-78
2020/12/28 03:12:11;;;;;;;8.70;7.37;;;2.90;99.50;;;;;;5106014;28;20191;-79
2020/12/28 03:14:45;;;;;;;8.70;7.07;;;2.90;99.40;;;;;;5106707;28;20640;-78
2020/12/28 03:17:11;;;;;;;9.65;6.57;;;2.90;99.70;;;;;;5105678;28;20211;-78
2020/12/28 03:19:42;;;;;;;9.90;7.20;;;3.00;99.10;;;;;;5106878;28;20250;-79
2020/12/28 03:22:14;;;;;;;11.07;6.65;;;3.00;99.30;;;;;;5106622;28;20379;-78
2020/12/28 03:24:39;;;;;;;7.18;6.13;;;3.00;99.40;;;;;;5107184;28;20180;-78
2020/12/28 03:27:14;;;;;;;10.03;7.23;;;3.00;99.60;;;;;;5104411;28;20197;-78
2020/12/28 03:29:54;;;;;;;8.85;7.55;;;3.10;99.60;;;;;;5106472;28;20184;-78
2020/12/28 03:32:20;;;;;;;10.40;7.45;;;3.00;99.70;;;;;;5105486;28;20183;-78
2020/12/28 03:34:45;;;;;;;7.90;6.90;;;3.10;99.50;;;;;;5105424;28;20199;-78
2020/12/28 03:37:14;;;;;;;8.97;6.83;;;3.10;99.40;;;;;;5107229;28;20268;-79
2020/12/28 03:39:39;;;;;;;9.80;7.30;;;3.10;99.60;;;;;;5107519;28;20196;-79
2020/12/28 03:42:08;;;;;;;11.30;8.17;;;3.20;99.60;;;;;;5106390;28;20643;-78
2020/12/28 03:44:51;;;;;;;8.48;6.22;;;3.30;99.30;;;;;;5110564;28;20176;-78
2020/12/28 03:47:17;;;;;;;7.63;6.00;;;3.30;99.50;;;;;;5111116;28;20168;-79
2020/12/28 03:49:43;;;;;;;9.13;6.33;;;3.30;99.60;;;;;;5110938;28;20263;-79
2020/12/28 03:52:09;;;;;;;8.93;6.60;;;3.30;99.70;;;;;;5110406;28;20255;-78
2020/12/28 03:54:40;;;;;;;9.90;7.80;;;3.30;99.80;;;;;;5109337;28;20606;-78
2020/12/28 03:57:20;;;;;;;9.30;7.53;;;3.40;99.90;;;;;;5110744;28;20164;-78
2020/12/28 03:59:49;;;;;;;9.98;7.80;;;3.40;99.90;;;;;;5109517;28;20672;-78
2020/12/28 04:02:15;;;;;;;8.93;7.60;;;3.50;99.90;;;;;;5110622;28;20183;-78
2020/12/28 04:04:43;;;;;;;8.03;6.23;;;3.50;99.90;;;;;;5109314;28;20691;-78
2020/12/28 04:07:11;;;;;;;11.75;8.70;;;3.50;99.90;;;;;;5111259;28;20563;-79
2020/12/28 04:12:43;;;;;;;9.32;6.57;;;3.50;99.90;;;;;;5111048;28;20233;-78
2020/12/28 04:15:08;;;;;;;10.88;7.60;;;3.60;99.90;;;;;;5111551;28;20183;-78
2020/12/28 04:17:37;;;;;;;9.10;6.50;;;3.60;99.90;;;;;;5111854;28;20233;-78
2020/12/28 04:20:05;;;;;;;10.00;6.55;;;3.70;99.90;;;;;;5111363;27;20541;-78
2020/12/28 04:22:34;;;;;;;7.95;6.45;;;3.70;99.90;;;;;;5110224;28;20180;-79
2020/12/28 04:25:08;;;;;;;8.52;5.70;;;3.80;99.90;;;;;;5109910;28;20628;-79
2020/12/28 04:27:39;;;;;;;7.97;6.68;;;3.80;99.90;;;;;;5110701;28;20163;-78
2020/12/28 04:30:08;;;;;;;10.10;7.15;;;3.80;99.90;;;;;;5110783;28;20176;-79
2020/12/28 04:32:36;;;;;;;9.35;6.65;;;3.80;99.90;;;;;;5109655;28;20172;-78
2020/12/28 04:35:11;;;;;;;8.38;6.28;;;3.80;99.90;;;;;;5110504;28;20229;-79
2020/12/28 04:37:52;;;;;;;8.30;6.47;;;3.80;99.90;;;;;;5110381;28;20224;-79
2020/12/28 04:40:21;;;;;;;6.90;6.18;;;3.80;99.90;;;;;;5109189;28;20221;-79
2020/12/28 04:42:56;;;;;;;7.88;6.55;;;3.90;99.90;;;;;;5110107;28;20643;-79
2020/12/28 04:45:22;;;;;;;8.15;6.30;;;3.90;99.90;;;;;;5109619;28;20176;-79
2020/12/28 04:47:57;;;;;;;9.20;6.97;;;3.90;99.90;;;;;;5107097;28;20180;-79
2020/12/28 04:50:25;;;;;;;9.50;6.63;;;4.00;99.90;;;;;;5108113;28;20175;-79
2020/12/28 04:52:51;;;;;;;9.52;7.18;;;4.00;99.90;;;;;;5109569;28;20228;-79
2020/12/28 04:55:17;;;;;;;9.30;7.57;;;3.90;99.90;;;;;;5108846;28;20544;-78
2020/12/28 04:57:46;;;;;;;9.15;6.90;;;3.90;99.90;;;;;;5109179;28;20179;-78
2020/12/28 05:00:14;;;;;;;9.10;6.68;;;4.00;99.90;;;;;;5109313;28;20207;-78
2020/12/28 05:02:41;;;;;;;12.98;6.85;;;4.00;99.90;;;;;;5109086;28;20171;-78
2020/12/28 05:05:16;;;;;;;8.95;7.32;;;4.00;99.90;;;;;;5108967;28;20705;-78
2020/12/28 05:07:49;;;;;;;10.60;7.95;;;4.00;99.90;;;;;;5107586;28;20586;-78
2020/12/28 05:10:27;;;;;;;10.38;9.27;;;4.00;99.90;;;;;;5108018;28;20187;-77
2020/12/28 05:13:10;;;;;;;11.05;8.30;;;4.00;99.90;;;;;;5108933;28;20184;-79
2020/12/28 05:15:50;;;;;;;11.55;8.43;;;4.00;99.90;;;;;;5109372;27;20172;-79
2020/12/28 05:18:22;;;;;;;10.82;7.97;;;4.00;99.90;;;;;;5109471;28;20168;-78
2020/12/28 05:20:48;;;;;;;9.40;8.40;;;3.90;99.90;;;;;;5107858;27;20196;-78
2020/12/28 05:23:16;;;;;;;11.25;9.40;;;4.00;99.90;;;;;;5108945;28;20168;-78
2020/12/28 05:25:52;;;;;;;12.15;8.90;;;3.80;99.90;;;;;;5108766;28;20534;-78
2020/12/28 05:28:27;;;;;;;11.48;8.18;;;3.80;99.90;;;;;;5107513;28;20262;-78
2020/12/28 05:30:59;;;;;;;14.43;9.57;;;3.70;99.90;;;;;;5108958;28;20192;-78
2020/12/28 05:33:33;;;;;;;12.63;10.45;;;3.60;99.90;;;;;;5108524;28;20164;-79
2020/12/28 05:35:59;;;;;;;13.95;10.60;;;3.80;99.90;;;;;;5106149;28;20186;-78
2020/12/28 05:38:45;;;;;;;15.83;11.60;;;3.70;99.90;;;;;;5108212;28;20639;-78
2020/12/28 05:41:16;;;;;;;14.70;11.10;;;3.70;99.90;;;;;;5109171;28;20245;-78
2020/12/28 05:43:45;;;;;;;14.18;10.30;;;3.70;99.90;;;;;;5106645;28;20179;-79
2020/12/28 05:46:23;;;;;;;25.48;22.13;;;3.60;99.90;;;;;;5107350;28;20558;-79
2020/12/28 05:48:55;;;;;;;16.05;13.55;;;3.50;99.90;;;;;;5108265;28;20186;-78
2020/12/28 05:51:21;;;;;;;13.98;11.13;;;3.60;99.90;;;;;;5106487;28;20179;-79
2020/12/28 05:53:50;;;;;;;13.00;10.50;;;3.40;99.90;;;;;;5106667;28;20227;-79
2020/12/28 05:56:15;;;;;;;16.52;11.35;;;3.50;99.90;;;;;;5108345;28;20214;-79
2020/12/28 05:58:51;;;;;;;12.33;11.03;;;3.40;99.90;;;;;;5108390;28;20184;-79
2020/12/28 06:01:22;;;;;;;15.93;13.88;;;3.40;99.90;;;;;;5107889;28;20479;-79
2020/12/28 06:03:55;;;;;;;13.13;10.75;;;3.30;99.90;;;;;;5108759;28;20592;-79
2020/12/28 06:06:30;;;;;;;16.90;13.90;;;3.20;99.90;;;;;;5107066;28;20156;-79
2020/12/28 06:09:00;;;;;;;23.10;17.17;;;3.20;99.90;;;;;;5106829;28;20187;-79
2020/12/28 06:11:35;;;;;;;23.73;19.02;;;3.00;99.90;;;;;;5108139;28;20592;-79
2020/12/28 06:14:19;;;;;;;27.98;21.30;;;3.10;99.90;;;;;;5107669;28;20636;-79
2020/12/28 06:16:50;;;;;;;28.40;19.52;;;3.10;99.90;;;;;;5107663;28;20172;-78
2020/12/28 06:19:44;;;;;;;27.75;21.73;;;3.10;99.90;;;;;;5108361;28;20627;-78
2020/12/28 06:22:23;;;;;;;36.30;28.33;;;3.00;99.90;;;;;;5108508;28;20601;-79
2020/12/28 06:25:05;;;;;;;23.63;19.20;;;3.10;99.90;;;;;;5106150;28;20182;-78
2020/12/28 06:27:33;;;;;;;27.75;19.80;;;3.00;99.90;;;;;;5107755;28;20170;-79
2020/12/28 06:30:21;;;;;;;27.40;20.08;;;3.00;99.90;;;;;;5107776;28;20192;-79
2020/12/28 06:33:04;;;;;;;33.80;21.23;;;3.00;99.90;;;;;;5106067;28;20184;-78
2020/12/28 06:35:30;;;;;;;31.83;23.30;;;3.00;99.90;;;;;;5107772;28;20590;-79
2020/12/28 06:38:03;;;;;;;35.80;24.27;;;3.00;99.90;;;;;;5105744;28;20187;-79
2020/12/28 06:40:43;;;;;;;37.35;24.60;;;3.00;99.90;;;;;;5105922;28;20211;-79
2020/12/28 06:43:24;;;;;;;34.28;25.30;;;3.10;99.90;;;;;;5107043;28;20560;-79
2020/12/28 06:45:52;;;;;;;37.70;24.98;;;3.10;99.90;;;;;;5107048;28;20262;-80
2020/12/28 06:48:25;;;;;;;35.72;22.60;;;3.10;99.90;;;;;;5105708;28;20275;-79
2020/12/28 06:51:10;;;;;;;40.97;25.55;;;3.10;99.90;;;;;;5107806;28;20187;-79
2020/12/28 06:53:36;;;;;;;40.22;30.50;;;3.00;99.90;;;;;;5105395;28;20227;-79
2020/12/28 06:56:09;;;;;;;38.47;25.13;;;3.00;99.90;;;;;;5105814;28;20187;-79
2020/12/28 06:58:38;;;;;;;36.47;24.13;;;3.10;99.90;;;;;;5104563;28;20176;-79
2020/12/28 07:01:08;;;;;;;41.28;24.90;;;3.10;99.90;;;;;;5105351;28;20208;-78
2020/12/28 07:03:33;;;;;;;36.70;28.15;;;3.10;99.90;;;;;;5106820;28;20540;-78
2020/12/28 07:06:17;;;;;;;40.83;26.33;;;3.00;99.90;;;;;;5106050;28;20270;-79
2020/12/28 07:08:48;;;;;;;42.20;28.35;;;3.10;99.90;;;;;;5106744;28;20176;-79
2020/12/28 07:11:21;;;;;;;34.72;23.05;;;3.10;99.90;;;;;;5105931;28;20605;-78
2020/12/28 07:13:47;;;;;;;40.95;24.88;;;3.10;99.90;;;;;;5104317;28;20207;-79
2020/12/28 07:16:13;;;;;;;54.85;32.47;;;3.20;99.90;;;;;;5107194;28;20659;-79
2020/12/28 07:18:42;;;;;;;55.47;36.05;;;3.20;99.90;;;;;;5107514;28;20176;-79
2020/12/28 07:21:11;;;;;;;59.65;41.85;;;3.20;99.90;;;;;;5111860;27;20708;-78
2020/12/28 07:23:42;;;;;;;55.72;37.78;;;3.30;99.70;;;;;;5111246;28;20178;-79
2020/12/28 07:26:10;;;;;;;47.80;35.10;;;3.30;99.50;;;;;;5110946;28;20172;-78
2020/12/28 07:28:38;;;;;;;45.50;36.25;;;3.30;99.30;;;;;;5110305;28;20168;-77
2020/12/28 07:31:10;;;;;;;43.47;30.05;;;3.30;99.30;;;;;;5109565;28;20643;-79
2020/12/28 07:33:47;;;;;;;46.75;33.03;;;3.30;99.40;;;;;;5110853;28;20176;-78
2020/12/28 07:36:15;;;;;;;52.50;37.60;;;3.30;99.40;;;;;;5110996;28;20206;-79
2020/12/28 07:38:45;;;;;;;41.92;28.70;;;3.40;99.20;;;;;;5109701;28;20522;-79
2020/12/28 07:41:21;;;;;;;44.88;25.77;;;3.40;99.20;;;;;;5109430;28;20203;-79
2020/12/28 07:43:57;;;;;;;43.28;28.20;;;3.40;98.90;;;;;;5110307;28;20225;-78
2020/12/28 07:46:47;;;;;;;40.95;26.73;;;3.40;99.10;;;;;;5109265;28;20164;-78
2020/12/28 07:49:27;;;;;;;41.22;28.00;;;3.30;98.90;;;;;;5108944;28;20179;-79
2020/12/28 07:52:20;;;;;;;42.17;28.30;;;3.30;99.00;;;;;;5110491;28;20183;-78
2020/12/28 07:55:05;;;;;;;41.58;26.38;;;3.30;99.10;;;;;;5109956;28;20186;-78
2020/12/28 07:58:09;;;;;;;45.90;30.98;;;3.30;99.10;;;;;;5109163;28;20183;-78
2020/12/28 08:00:49;;;;;;;48.20;33.30;;;3.20;99.20;;;;;;5108151;28;20329;-78
2020/12/28 08:03:41;;;;;;;47.05;32.20;;;3.30;99.10;;;;;;5107414;28;20168;-78
2020/12/28 08:06:09;;;;;;;46.28;30.15;;;3.40;99.00;;;;;;5110048;28;20172;-79
2020/12/28 08:08:38;;;;;;;45.78;31.27;;;3.40;98.70;;;;;;5109618;28;20171;-79
2020/12/28 08:11:07;;;;;;;49.80;29.80;;;3.40;98.90;;;;;;5108381;28;20635;-78
2020/12/28 08:13:36;;;;;;;48.55;29.70;;;3.30;99.20;;;;;;5109527;28;20229;-79
2020/12/28 08:16:12;;;;;;;46.00;28.23;;;3.30;99.00;;;;;;5108588;28;20240;-78
2020/12/28 08:18:57;;;;;;;48.33;30.38;;;3.40;98.80;;;;;;5108728;28;20183;-79
2020/12/28 08:21:43;;;;;;;52.88;32.70;;;3.50;98.50;;;;;;5109472;27;20192;-78
2020/12/28 08:24:23;;;;;;;52.22;38.30;;;3.70;98.20;;;;;;5110080;28;20172;-77
2020/12/28 08:26:51;;;;;;;56.90;34.55;;;3.70;97.70;;;;;;5109560;28;20230;-78
2020/12/28 08:29:20;;;;;;;62.25;41.17;;;3.70;98.10;;;;;;5109345;28;20195;-78
2020/12/28 08:31:51;;;;;;;56.88;33.40;;;3.70;98.10;;;;;;5108294;28;20199;-78
2020/12/28 08:34:17;;;;;;;55.17;35.40;;;3.60;98.50;;;;;;5108831;28;20234;-78
2020/12/28 08:36:55;;;;;;;64.97;41.13;;;3.60;98.40;;;;;;5109351;28;20207;-77
2020/12/28 08:39:30;;;;;;;56.20;37.55;;;3.70;98.20;;;;;;5108649;28;20710;-78
2020/12/28 08:42:06;;;;;;;59.05;41.13;;;3.80;98.10;;;;;;5109575;28;20242;-78
2020/12/28 08:44:41;;;;;;;66.18;40.70;;;3.80;98.20;;;;;;5107394;28;20183;-77
2020/12/28 08:47:12;;;;;;;54.33;35.47;;;3.80;97.90;;;;;;5108750;28;20186;-78
2020/12/28 08:49:46;;;;;;;64.10;39.83;;;3.80;97.90;;;;;;5109667;28;20175;-78
2020/12/28 08:52:23;;;;;;;61.97;39.30;;;3.90;97.60;;;;;;5106869;28;20164;-78
2020/12/28 08:54:59;;;;;;;61.83;34.05;;;3.90;97.60;;;;;;5108281;28;20270;-78
2020/12/28 08:57:34;;;;;;;52.70;34.50;;;3.90;97.60;;;;;;5108282;28;20554;-77
2020/12/28 09:00:24;;;;;;;62.25;41.35;;;4.00;97.50;;;;;;5109513;28;20214;-77
2020/12/28 09:02:56;;;;;;;60.55;38.35;;;4.10;97.40;;;;;;5107221;28;20258;-78
2020/12/28 09:05:23;;;;;;;57.33;33.58;;;4.10;97.50;;;;;;5107756;28;20187;-78
2020/12/28 09:07:52;;;;;;;58.10;36.65;;;4.10;97.40;;;;;;5107092;28;20232;-78
2020/12/28 09:10:18;;;;;;;57.42;33.97;;;4.10;97.70;;;;;;5109331;28;20178;-78
2020/12/28 09:12:44;;;;;;;47.90;30.95;;;4.20;97.40;;;;;;5108644;28;20276;-78
2020/12/28 09:15:13;;;;;;;52.97;31.07;;;4.20;97.60;;;;;;5108898;28;20710;-78
2020/12/28 09:17:42;;;;;;;55.25;34.15;;;4.30;97.80;;;;;;5107770;28;20382;-78
2020/12/28 09:20:07;;;;;;;55.13;33.88;;;4.40;97.00;;;;;;5107705;28;20209;-78
2020/12/28 09:22:39;;;;;;;57.60;36.30;;;4.30;97.40;;;;;;5107800;28;20695;-78
2020/12/28 09:25:05;;;;;;;55.65;34.25;;;4.40;97.50;;;;;;5108188;28;20172;-78
2020/12/28 09:27:31;;;;;;;59.30;34.57;;;4.40;97.40;;;;;;5107142;28;20202;-78
2020/12/28 09:30:10;;;;;;;62.50;34.53;;;4.40;97.70;;;;;;5109607;27;20194;-78
2020/12/28 09:32:44;;;;;;;51.53;32.65;;;4.40;97.80;;;;;;5109216;28;20168;-78
2020/12/28 09:35:10;;;;;;;55.03;32.88;;;4.50;97.20;;;;;;5109235;28;20664;-77
2020/12/28 09:37:41;;;;;;;50.90;32.47;;;4.60;97.30;;;;;;5107339;28;20199;-78
2020/12/28 09:40:07;;;;;;;56.53;36.28;;;4.60;97.30;;;;;;5107632;28;20204;-78
2020/12/28 09:42:44;;;;;;;47.37;31.67;;;4.60;97.70;;;;;;5108510;28;20269;-78
2020/12/28 09:45:55;;;;;;;54.97;33.17;;;4.80;97.50;;;;;;5108787;28;20418;-77
2020/12/28 09:47:56;;;;;;;57.65;36.28;;;4.80;97.50;;;;;;5104297;28;20589;-78
2020/12/28 09:50:34;;;;;;;51.23;34.30;;;4.80;97.50;;;;;;5108410;28;20188;-78
2020/12/28 09:53:02;;;;;;;48.83;31.83;;;4.90;97.10;;;;;;5107962;28;20223;-78
2020/12/28 09:55:28;;;;;;;52.70;35.38;;;4.90;97.20;;;;;;5105940;28;20194;-78
2020/12/28 09:57:57;;;;;;;52.00;34.60;;;4.90;97.60;;;;;;5108054;28;20183;-78
2020/12/28 10:00:25;;;;;;;49.88;33.75;;;4.90;97.80;;;;;;5108077;28;20441;-78
2020/12/28 10:02:54;;;;;;;48.47;32.67;;;5.10;97.30;;;;;;5108309;28;20180;-78
2020/12/28 10:05:22;;;;;;;55.80;35.65;;;5.20;97.30;;;;;;5108627;28;20175;-78
2020/12/28 10:07:51;;;;;;;50.47;32.20;;;5.20;97.50;;;;;;5108298;28;20408;-78
2020/12/28 10:10:17;;;;;;;51.17;35.97;;;5.30;97.30;;;;;;5108729;28;20215;-77
2020/12/28 10:12:42;;;;;;;48.43;32.23;;;5.30;96.90;;;;;;5106382;28;20690;-77
2020/12/28 10:15:08;;;;;;;45.60;29.90;;;5.50;96.40;;;;;;5107422;28;20465;-78
2020/12/28 10:17:38;;;;;;;44.07;30.00;;;5.50;96.40;;;;;;5108434;28;20180;-78
2020/12/28 10:20:09;;;;;;;45.88;29.65;;;5.60;96.60;;;;;;5109180;28;20455;-78
2020/12/28 10:22:37;;;;;;;41.03;27.45;;;5.70;96.50;;;;;;5109149;28;20179;-78
2020/12/28 10:25:03;;;;;;;36.67;26.30;;;5.90;96.00;;;;;;5110124;28;20187;-78
2020/12/28 10:27:28;;;;;;;43.77;29.50;;;5.90;96.00;;;;;;5109275;28;20531;-78
2020/12/28 10:29:57;;;;;;;38.60;28.27;;;6.30;95.90;;;;;;5107963;28;20175;-78
2020/12/28 10:32:25;;;;;;;36.92;25.92;;;6.60;94.90;;;;;;5106217;28;20184;-78
2020/12/28 10:34:54;;;;;;;38.25;30.48;;;6.90;94.30;;;;;;5106402;28;20190;-77
2020/12/28 10:37:21;;;;;;;34.63;23.98;;;6.90;93.90;;;;;;5106503;28;20711;-78
2020/12/28 10:39:50;;;;;;;37.30;27.25;;;6.90;93.90;;;;;;5107560;28;20191;-78
2020/12/28 10:42:16;;;;;;;34.72;25.70;;;6.70;94.60;;;;;;5108202;28;20171;-78
2020/12/28 10:44:44;;;;;;;31.23;23.57;;;6.80;94.60;;;;;;5106975;28;20248;-78
2020/12/28 10:47:14;;;;;;;41.55;27.65;;;6.80;94.40;;;;;;5107855;28;20540;-78
2020/12/28 10:49:40;;;;;;;36.90;25.38;;;6.90;94.60;;;;;;5106657;28;20643;-78
2020/12/28 10:52:08;;;;;;;38.87;27.37;;;7.00;94.40;;;;;;5109070;28;20183;-78
2020/12/28 10:54:34;;;;;;;36.22;25.75;;;7.10;94.70;;;;;;5112299;28;20505;-78
2020/12/28 10:57:17;;;;;;;31.83;23.90;;;7.20;93.90;;;;;;5111574;28;20183;-78
2020/12/28 10:59:43;;;;;;;41.45;27.10;;;7.20;94.00;;;;;;5113044;28;20202;-78
2020/12/28 11:02:11;;;;;;;41.43;30.50;;;7.10;94.80;;;;;;5111802;28;20610;-78
2020/12/28 11:04:41;;;;;;;39.35;28.35;;;7.20;94.60;;;;;;5112632;28;20203;-78
2020/12/28 11:07:09;;;;;;;42.45;32.05;;;7.20;94.80;;;;;;5113771;28;20615;-78
2020/12/28 11:09:40;;;;;;;43.33;32.15;;;7.30;94.80;;;;;;5112539;28;20631;-78
2020/12/28 11:12:12;;;;;;;39.03;30.83;;;7.30;94.70;;;;;;5112099;28;20262;-77
2020/12/28 11:14:41;;;;;;;44.00;32.63;;;7.40;94.40;;;;;;5113282;28;20187;-77
2020/12/28 11:17:09;;;;;;;42.70;32.45;;;7.50;94.70;;;;;;5112378;28;20872;-78
2020/12/28 11:19:38;;;;;;;35.08;27.17;;;7.50;94.90;;;;;;5111202;28;20191;-78
2020/12/28 11:22:09;;;;;;;34.67;27.38;;;7.50;94.60;;;;;;5112055;28;20179;-77
2020/12/28 11:24:38;;;;;;;30.85;26.60;;;7.50;94.60;;;;;;5111948;28;20168;-77
2020/12/28 11:27:18;;;;;;;29.85;24.90;;;7.60;93.80;;;;;;5109935;28;20176;-77
2020/12/28 11:29:49;;;;;;;31.67;23.83;;;7.70;93.60;;;;;;5111171;28;20180;-76
2020/12/28 11:32:21;;;;;;;35.10;25.95;;;7.70;93.70;;;;;;5113257;28;20176;-76
2020/12/28 11:34:50;;;;;;;30.58;24.75;;;7.70;93.70;;;;;;5109834;28;20532;-77
2020/12/28 11:37:21;;;;;;;27.48;21.77;;;7.70;93.80;;;;;;5110067;28;20180;-77
2020/12/28 11:39:50;;;;;;;28.98;23.35;;;7.70;94.10;;;;;;5111239;28;20175;-77
2020/12/28 11:42:18;;;;;;;28.48;21.85;;;7.80;94.00;;;;;;5111807;28;20595;-77
2020/12/28 11:44:44;;;;;;;30.45;23.08;;;7.70;94.30;;;;;;5112142;28;20172;-77
2020/12/28 11:47:10;;;;;;;28.83;21.60;;;7.80;94.30;;;;;;5111561;28;20598;-77
2020/12/28 11:49:35;;;;;;;29.67;23.20;;;7.80;94.40;;;;;;5111536;28;20175;-77
2020/12/28 11:52:04;;;;;;;27.17;20.53;;;7.80;94.50;;;;;;5110614;28;20427;-77
2020/12/28 11:54:29;;;;;;;28.85;23.40;;;7.90;94.40;;;;;;5111745;28;20267;-77
2020/12/28 11:56:55;;;;;;;27.47;21.20;;;7.90;94.80;;;;;;5112542;28;20579;-77
2020/12/28 11:59:23;;;;;;;31.97;22.80;;;7.90;95.00;;;;;;5112484;28;20172;-77
2020/12/28 12:01:49;;;;;;;31.88;23.15;;;8.00;94.90;;;;;;5112745;28;20200;-77
2020/12/28 12:04:18;;;;;;;32.53;23.70;;;7.90;95.10;;;;;;5111749;28;20259;-77
2020/12/28 12:06:43;;;;;;;33.00;26.50;;;7.80;95.70;;;;;;5110913;28;20182;-77
2020/12/28 12:09:18;;;;;;;35.30;27.17;;;8.00;95.60;;;;;;5111080;28;20179;-77
2020/12/28 12:11:48;;;;;;;28.73;23.77;;;8.00;95.60;;;;;;5111650;28;20240;-77
2020/12/28 12:14:15;;;;;;;32.00;23.95;;;8.00;95.60;;;;;;5111547;28;20257;-77
2020/12/28 12:16:43;;;;;;;31.10;23.30;;;8.10;95.40;;;;;;5111851;28;20194;-77
2020/12/28 12:19:27;;;;;;;31.77;22.50;;;8.20;95.60;;;;;;5111321;28;20187;-77
2020/12/28 12:22:01;;;;;;;31.77;23.13;;;8.20;95.50;;;;;;5111225;27;20192;-77
2020/12/28 12:24:30;;;;;;;29.10;21.67;;;8.20;95.60;;;;;;5110414;28;20656;-77
2020/12/28 12:26:55;;;;;;;20.95;15.65;;;8.20;95.30;;;;;;5110603;28;20176;-77
2020/12/28 12:29:24;;;;;;;18.50;15.30;;;8.30;95.00;;;;;;5110383;28;20194;-76
2020/12/28 12:31:55;;;;;;;19.38;14.43;;;8.40;94.70;;;;;;5109065;28;20187;-77
2020/12/28 12:34:27;;;;;;;19.20;14.38;;;8.50;94.20;;;;;;5109868;28;20194;-77
2020/12/28 12:37:04;;;;;;;14.77;13.10;;;8.70;93.40;;;;;;5108439;28;20179;-76
2020/12/28 12:39:36;;;;;;;16.42;13.60;;;8.80;92.80;;;;;;5104433;28;20554;-77
2020/12/28 12:42:13;;;;;;;16.85;13.20;;;8.80;92.60;;;;;;5089009;28;20755;-77
2020/12/28 12:44:42;;;;;;;16.50;12.80;;;8.80;92.20;;;;;;5088186;28;20191;-77
2020/12/28 12:47:09;;;;;;;14.70;13.20;;;8.80;92.50;;;;;;5089888;28;20177;-76
2020/12/28 12:49:34;;;;;;;15.80;13.65;;;8.80;92.30;;;;;;5089617;28;20169;-77
2020/12/28 12:52:25;;;;;;;14.77;12.73;;;8.80;92.30;;;;;;5089592;28;20181;-77
2020/12/28 12:54:53;;;;;;;14.95;13.32;;;8.80;92.20;;;;;;5088951;28;20266;-77
2020/12/28 12:57:22;;;;;;;15.13;13.52;;;8.90;92.10;;;;;;5089404;28;20180;-77
2020/12/28 13:00:04;;;;;;;16.52;12.95;;;8.80;92.40;;;;;;5088290;28;20211;-77
2020/12/28 13:02:35;;;;;;;17.75;14.68;;;8.90;92.40;;;;;;5089366;28;20198;-77